sensor_id;sensor_type;location;lat;lon;timestamp;temperature;humidity
54540;SHT30;40438;52.992;18.604;2024-01-30T00:01:17;1.22;86.95
54540;SHT30;40438;52.992;18.604;2024-01-30T00:03:42;1.20;86.95
54540;SHT30;40438;52.992;18.604;2024-01-30T00:06:08;1.17;86.98
54540;SHT30;40438;52.992;18.604;2024-01-30T00:08:34;1.19;86.96
54540;SHT30;40438;52.992;18.604;2024-01-30T00:11:00;1.17;86.94
54540;SHT30;40438;52.992;18.604;2024-01-30T00:13:26;1.16;86.91
54540;SHT30;40438;52.992;18.604;2024-01-30T00:15:53;1.13;86.95
54540;SHT30;40438;52.992;18.604;2024-01-30T00:18:19;1.17;86.89
54540;SHT30;40438;52.992;18.604;2024-01-30T00:20:45;1.13;86.87
54540;SHT30;40438;52.992;18.604;2024-01-30T00:23:11;1.06;86.36
54540;SHT30;40438;52.992;18.604;2024-01-30T00:25:37;1.06;86.30
54540;SHT30;40438;52.992;18.604;2024-01-30T00:28:03;1.01;86.36
54540;SHT30;40438;52.992;18.604;2024-01-30T00:30:29;0.99;86.18
54540;SHT30;40438;52.992;18.604;2024-01-30T00:32:56;0.96;85.92
54540;SHT30;40438;52.992;18.604;2024-01-30T00:35:21;0.89;85.81
54540;SHT30;40438;52.992;18.604;2024-01-30T00:37:47;0.90;85.89
54540;SHT30;40438;52.992;18.604;2024-01-30T00:40:13;0.88;85.83
54540;SHT30;40438;52.992;18.604;2024-01-30T00:42:39;0.82;85.85
54540;SHT30;40438;52.992;18.604;2024-01-30T00:45:05;0.79;86.15
54540;SHT30;40438;52.992;18.604;2024-01-30T00:47:31;0.78;86.23
54540;SHT30;40438;52.992;18.604;2024-01-30T00:49:58;0.78;86.47
54540;SHT30;40438;52.992;18.604;2024-01-30T00:52:24;0.80;86.57
54540;SHT30;40438;52.992;18.604;2024-01-30T00:54:50;0.76;86.65
54540;SHT30;40438;52.992;18.604;2024-01-30T00:57:16;0.72;86.52
54540;SHT30;40438;52.992;18.604;2024-01-30T00:59:41;0.66;86.57
54540;SHT30;40438;52.992;18.604;2024-01-30T01:02:07;0.61;86.65
54540;SHT30;40438;52.992;18.604;2024-01-30T01:04:33;0.61;86.82
54540;SHT30;40438;52.992;18.604;2024-01-30T01:07:00;0.59;87.08
54540;SHT30;40438;52.992;18.604;2024-01-30T01:09:26;0.58;87.06
54540;SHT30;40438;52.992;18.604;2024-01-30T01:11:52;0.58;87.36
54540;SHT30;40438;52.992;18.604;2024-01-30T01:14:17;0.61;87.29
54540;SHT30;40438;52.992;18.604;2024-01-30T01:16:43;0.55;87.20
54540;SHT30;40438;52.992;18.604;2024-01-30T01:19:09;0.52;87.00
54540;SHT30;40438;52.992;18.604;2024-01-30T01:21:35;0.54;86.78
54540;SHT30;40438;52.992;18.604;2024-01-30T01:24:02;0.51;86.87
54540;SHT30;40438;52.992;18.604;2024-01-30T01:26:28;0.49;86.91
54540;SHT30;40438;52.992;18.604;2024-01-30T01:28:53;0.49;86.92
54540;SHT30;40438;52.992;18.604;2024-01-30T01:31:19;0.48;87.04
54540;SHT30;40438;52.992;18.604;2024-01-30T01:33:45;0.47;87.11
54540;SHT30;40438;52.992;18.604;2024-01-30T01:36:11;0.52;87.01
54540;SHT30;40438;52.992;18.604;2024-01-30T01:38:37;0.51;86.76
54540;SHT30;40438;52.992;18.604;2024-01-30T01:41:04;0.51;86.88
54540;SHT30;40438;52.992;18.604;2024-01-30T01:43:30;0.44;86.64
54540;SHT30;40438;52.992;18.604;2024-01-30T01:45:55;0.37;86.95
54540;SHT30;40438;52.992;18.604;2024-01-30T01:48:22;0.38;87.31
54540;SHT30;40438;52.992;18.604;2024-01-30T01:50:47;0.38;87.40
54540;SHT30;40438;52.992;18.604;2024-01-30T01:53:14;0.37;87.41
54540;SHT30;40438;52.992;18.604;2024-01-30T01:55:41;0.40;87.48
54540;SHT30;40438;52.992;18.604;2024-01-30T01:58:09;0.37;87.72
54540;SHT30;40438;52.992;18.604;2024-01-30T02:00:36;0.41;87.76
54540;SHT30;40438;52.992;18.604;2024-01-30T02:03:02;0.45;87.63
54540;SHT30;40438;52.992;18.604;2024-01-30T02:05:30;0.47;87.49
54540;SHT30;40438;52.992;18.604;2024-01-30T02:07:56;0.52;87.40
54540;SHT30;40438;52.992;18.604;2024-01-30T02:10:22;0.49;87.38
54540;SHT30;40438;52.992;18.604;2024-01-30T02:12:48;0.52;87.46
54540;SHT30;40438;52.992;18.604;2024-01-30T02:15:15;0.52;87.38
54540;SHT30;40438;52.992;18.604;2024-01-30T02:17:41;0.54;87.09
54540;SHT30;40438;52.992;18.604;2024-01-30T02:20:08;0.52;87.17
54540;SHT30;40438;52.992;18.604;2024-01-30T02:22:36;0.48;87.22
54540;SHT30;40438;52.992;18.604;2024-01-30T02:25:03;0.45;87.22
54540;SHT30;40438;52.992;18.604;2024-01-30T02:27:29;0.47;87.19
54540;SHT30;40438;52.992;18.604;2024-01-30T02:29:55;0.45;87.11
54540;SHT30;40438;52.992;18.604;2024-01-30T02:32:21;0.42;86.93
54540;SHT30;40438;52.992;18.604;2024-01-30T02:34:46;0.37;87.16
54540;SHT30;40438;52.992;18.604;2024-01-30T02:37:12;0.38;87.18
54540;SHT30;40438;52.992;18.604;2024-01-30T02:39:39;0.40;87.22
54540;SHT30;40438;52.992;18.604;2024-01-30T02:42:05;0.37;87.33
54540;SHT30;40438;52.992;18.604;2024-01-30T02:44:31;0.37;87.27
54540;SHT30;40438;52.992;18.604;2024-01-30T02:46:57;0.40;87.19
54540;SHT30;40438;52.992;18.604;2024-01-30T02:49:23;0.40;87.13
54540;SHT30;40438;52.992;18.604;2024-01-30T02:51:49;0.40;87.08
54540;SHT30;40438;52.992;18.604;2024-01-30T02:54:14;0.37;87.09
54540;SHT30;40438;52.992;18.604;2024-01-30T02:56:42;0.37;87.13
54540;SHT30;40438;52.992;18.604;2024-01-30T02:59:07;0.37;87.10
54540;SHT30;40438;52.992;18.604;2024-01-30T03:01:33;0.38;87.06
54540;SHT30;40438;52.992;18.604;2024-01-30T03:03:59;0.41;86.90
54540;SHT30;40438;52.992;18.604;2024-01-30T03:06:25;0.44;86.77
54540;SHT30;40438;52.992;18.604;2024-01-30T03:08:50;0.41;86.62
54540;SHT30;40438;52.992;18.604;2024-01-30T03:11:16;0.40;86.46
54540;SHT30;40438;52.992;18.604;2024-01-30T03:13:43;0.37;86.46
54540;SHT30;40438;52.992;18.604;2024-01-30T03:16:09;0.31;86.65
54540;SHT30;40438;52.992;18.604;2024-01-30T03:18:35;0.33;86.90
54540;SHT30;40438;52.992;18.604;2024-01-30T03:21:01;0.34;86.86
54540;SHT30;40438;52.992;18.604;2024-01-30T03:23:26;0.36;86.89
54540;SHT30;40438;52.992;18.604;2024-01-30T03:25:52;0.37;86.80
54540;SHT30;40438;52.992;18.604;2024-01-30T03:28:18;0.38;86.66
54540;SHT30;40438;52.992;18.604;2024-01-30T03:30:45;0.36;86.49
54540;SHT30;40438;52.992;18.604;2024-01-30T03:33:11;0.30;86.16
54540;SHT30;40438;52.992;18.604;2024-01-30T03:35:37;0.28;86.32
54540;SHT30;40438;52.992;18.604;2024-01-30T03:38:03;0.28;86.59
54540;SHT30;40438;52.992;18.604;2024-01-30T03:40:29;0.28;86.65
54540;SHT30;40438;52.992;18.604;2024-01-30T03:42:54;0.27;86.63
54540;SHT30;40438;52.992;18.604;2024-01-30T03:45:20;0.33;86.63
54540;SHT30;40438;52.992;18.604;2024-01-30T03:47:47;0.30;86.18
54540;SHT30;40438;52.992;18.604;2024-01-30T03:50:13;0.28;86.38
54540;SHT30;40438;52.992;18.604;2024-01-30T03:52:39;0.28;86.37
54540;SHT30;40438;52.992;18.604;2024-01-30T03:55:05;0.27;86.39
54540;SHT30;40438;52.992;18.604;2024-01-30T03:57:31;0.34;86.37
54540;SHT30;40438;52.992;18.604;2024-01-30T03:59:57;0.34;86.35
54540;SHT30;40438;52.992;18.604;2024-01-30T04:02:23;0.31;86.27
54540;SHT30;40438;52.992;18.604;2024-01-30T04:04:50;0.34;86.35
54540;SHT30;40438;52.992;18.604;2024-01-30T04:07:15;0.34;86.26
54540;SHT30;40438;52.992;18.604;2024-01-30T04:09:41;0.33;86.18
54540;SHT30;40438;52.992;18.604;2024-01-30T04:12:07;0.30;86.45
54540;SHT30;40438;52.992;18.604;2024-01-30T04:14:33;0.31;86.49
54540;SHT30;40438;52.992;18.604;2024-01-30T04:16:59;0.33;86.44
54540;SHT30;40438;52.992;18.604;2024-01-30T04:19:25;0.34;86.43
54540;SHT30;40438;52.992;18.604;2024-01-30T04:21:52;0.31;86.25
54540;SHT30;40438;52.992;18.604;2024-01-30T04:24:18;0.34;86.34
54540;SHT30;40438;52.992;18.604;2024-01-30T04:26:43;0.33;86.36
54540;SHT30;40438;52.992;18.604;2024-01-30T04:29:09;0.34;86.37
54540;SHT30;40438;52.992;18.604;2024-01-30T04:31:36;0.28;86.24
54540;SHT30;40438;52.992;18.604;2024-01-30T04:34:02;0.28;86.29
54540;SHT30;40438;52.992;18.604;2024-01-30T04:36:27;0.27;86.27
54540;SHT30;40438;52.992;18.604;2024-01-30T04:38:55;0.27;86.32
54540;SHT30;40438;52.992;18.604;2024-01-30T04:41:20;0.27;86.49
54540;SHT30;40438;52.992;18.604;2024-01-30T04:43:46;0.26;86.56
54540;SHT30;40438;52.992;18.604;2024-01-30T04:46:12;0.27;86.69
54540;SHT30;40438;52.992;18.604;2024-01-30T04:48:38;0.27;86.66
54540;SHT30;40438;52.992;18.604;2024-01-30T04:51:04;0.30;86.67
54540;SHT30;40438;52.992;18.604;2024-01-30T04:53:30;0.28;86.62
54540;SHT30;40438;52.992;18.604;2024-01-30T04:55:57;0.30;86.61
54540;SHT30;40438;52.992;18.604;2024-01-30T04:58:23;0.26;86.50
54540;SHT30;40438;52.992;18.604;2024-01-30T05:00:49;0.30;86.47
54540;SHT30;40438;52.992;18.604;2024-01-30T05:03:15;0.28;86.47
54540;SHT30;40438;52.992;18.604;2024-01-30T05:05:40;0.24;86.57
54540;SHT30;40438;52.992;18.604;2024-01-30T05:08:06;0.30;86.73
54540;SHT30;40438;52.992;18.604;2024-01-30T05:10:32;0.34;86.70
54540;SHT30;40438;52.992;18.604;2024-01-30T05:12:59;0.34;86.74
54540;SHT30;40438;52.992;18.604;2024-01-30T05:15:25;0.37;86.74
54540;SHT30;40438;52.992;18.604;2024-01-30T05:17:51;0.41;86.67
54540;SHT30;40438;52.992;18.604;2024-01-30T05:20:17;0.41;86.59
54540;SHT30;40438;52.992;18.604;2024-01-30T05:22:43;0.42;86.71
54540;SHT30;40438;52.992;18.604;2024-01-30T05:25:08;0.37;86.76
54540;SHT30;40438;52.992;18.604;2024-01-30T05:27:34;0.38;86.79
54540;SHT30;40438;52.992;18.604;2024-01-30T05:30:02;0.38;86.74
54540;SHT30;40438;52.992;18.604;2024-01-30T05:32:27;0.40;86.78
54540;SHT30;40438;52.992;18.604;2024-01-30T05:34:53;0.44;86.62
54540;SHT30;40438;52.992;18.604;2024-01-30T05:37:19;0.42;86.77
54540;SHT30;40438;52.992;18.604;2024-01-30T05:39:45;0.41;86.74
54540;SHT30;40438;52.992;18.604;2024-01-30T05:42:11;0.42;86.81
54540;SHT30;40438;52.992;18.604;2024-01-30T05:44:37;0.45;86.86
54540;SHT30;40438;52.992;18.604;2024-01-30T05:47:04;0.45;86.84
54540;SHT30;40438;52.992;18.604;2024-01-30T05:49:30;0.45;86.86
54540;SHT30;40438;52.992;18.604;2024-01-30T05:51:55;0.51;86.80
54540;SHT30;40438;52.992;18.604;2024-01-30T05:54:21;0.54;86.56
54540;SHT30;40438;52.992;18.604;2024-01-30T05:56:47;0.57;86.53
54540;SHT30;40438;52.992;18.604;2024-01-30T05:59:13;0.57;86.49
54540;SHT30;40438;52.992;18.604;2024-01-30T06:01:45;0.55;86.39
54540;SHT30;40438;52.992;18.604;2024-01-30T06:04:12;0.54;86.46
54540;SHT30;40438;52.992;18.604;2024-01-30T06:06:38;0.55;86.59
54540;SHT30;40438;52.992;18.604;2024-01-30T06:09:04;0.58;86.58
54540;SHT30;40438;52.992;18.604;2024-01-30T06:11:30;0.59;86.38
54540;SHT30;40438;52.992;18.604;2024-01-30T06:13:56;0.64;86.37
54540;SHT30;40438;52.992;18.604;2024-01-30T06:16:21;0.65;86.37
54540;SHT30;40438;52.992;18.604;2024-01-30T06:18:47;0.65;86.40
54540;SHT30;40438;52.992;18.604;2024-01-30T06:21:14;0.69;86.28
54540;SHT30;40438;52.992;18.604;2024-01-30T06:23:40;0.69;86.05
54540;SHT30;40438;52.992;18.604;2024-01-30T06:26:07;0.69;86.09
54540;SHT30;40438;52.992;18.604;2024-01-30T06:28:34;0.72;86.12
54540;SHT30;40438;52.992;18.604;2024-01-30T06:31:01;0.72;86.15
54540;SHT30;40438;52.992;18.604;2024-01-30T06:33:26;0.70;86.14
54540;SHT30;40438;52.992;18.604;2024-01-30T06:35:52;0.75;86.09
54540;SHT30;40438;52.992;18.604;2024-01-30T06:38:19;0.78;85.83
54540;SHT30;40438;52.992;18.604;2024-01-30T06:40:45;0.78;85.84
54540;SHT30;40438;52.992;18.604;2024-01-30T06:43:11;0.78;85.87
54540;SHT30;40438;52.992;18.604;2024-01-30T06:45:37;0.79;85.94
54540;SHT30;40438;52.992;18.604;2024-01-30T06:48:03;0.79;85.74
54540;SHT30;40438;52.992;18.604;2024-01-30T06:50:29;0.83;85.75
54540;SHT30;40438;52.992;18.604;2024-01-30T06:52:55;0.83;85.81
54540;SHT30;40438;52.992;18.604;2024-01-30T06:55:22;0.89;85.72
54540;SHT30;40438;52.992;18.604;2024-01-30T06:57:48;0.92;85.66
54540;SHT30;40438;52.992;18.604;2024-01-30T07:00:15;0.97;85.50
54540;SHT30;40438;52.992;18.604;2024-01-30T07:02:40;1.01;85.38
54540;SHT30;40438;52.992;18.604;2024-01-30T07:05:07;1.06;85.19
54540;SHT30;40438;52.992;18.604;2024-01-30T07:07:33;1.11;85.05
54540;SHT30;40438;52.992;18.604;2024-01-30T07:09:59;1.17;84.82
54540;SHT30;40438;52.992;18.604;2024-01-30T07:12:27;1.19;84.78
54540;SHT30;40438;52.992;18.604;2024-01-30T07:14:53;1.20;84.78
54540;SHT30;40438;52.992;18.604;2024-01-30T07:17:18;1.23;84.82
54540;SHT30;40438;52.992;18.604;2024-01-30T07:19:44;1.24;84.75
54540;SHT30;40438;52.992;18.604;2024-01-30T07:22:10;1.30;84.56
54540;SHT30;40438;52.992;18.604;2024-01-30T07:24:36;1.33;84.53
54540;SHT30;40438;52.992;18.604;2024-01-30T07:27:03;1.43;84.19
54540;SHT30;40438;52.992;18.604;2024-01-30T07:29:30;1.48;83.98
54540;SHT30;40438;52.992;18.604;2024-01-30T07:31:56;1.54;83.95
54540;SHT30;40438;52.992;18.604;2024-01-30T07:34:22;1.62;83.72
54540;SHT30;40438;52.992;18.604;2024-01-30T07:36:48;1.62;83.67
54540;SHT30;40438;52.992;18.604;2024-01-30T07:39:14;1.64;83.64
54540;SHT30;40438;52.992;18.604;2024-01-30T07:41:39;1.81;82.89
54540;SHT30;40438;52.992;18.604;2024-01-30T07:44:05;1.82;83.14
54540;SHT30;40438;52.992;18.604;2024-01-30T07:46:32;1.86;82.96
54540;SHT30;40438;52.992;18.604;2024-01-30T07:48:58;1.95;82.72
54540;SHT30;40438;52.992;18.604;2024-01-30T07:51:24;2.05;82.58
54540;SHT30;40438;52.992;18.604;2024-01-30T07:53:50;2.16;82.07
54540;SHT30;40438;52.992;18.604;2024-01-30T07:56:16;2.26;81.81
54540;SHT30;40438;52.992;18.604;2024-01-30T07:58:41;2.43;81.59
54540;SHT30;40438;52.992;18.604;2024-01-30T08:01:07;2.51;80.98
54540;SHT30;40438;52.992;18.604;2024-01-30T08:03:34;2.60;80.55
54540;SHT30;40438;52.992;18.604;2024-01-30T08:06:00;2.68;79.82
54540;SHT30;40438;52.992;18.604;2024-01-30T08:08:26;2.82;80.29
54540;SHT30;40438;52.992;18.604;2024-01-30T08:10:53;2.82;79.39
54540;SHT30;40438;52.992;18.604;2024-01-30T08:13:19;2.91;79.42
54540;SHT30;40438;52.992;18.604;2024-01-30T08:15:45;2.93;78.94
54540;SHT30;40438;52.992;18.604;2024-01-30T08:18:11;2.99;78.92
54540;SHT30;40438;52.992;18.604;2024-01-30T08:20:38;3.00;78.77
54540;SHT30;40438;52.992;18.604;2024-01-30T08:23:04;3.08;78.56
54540;SHT30;40438;52.992;18.604;2024-01-30T08:25:31;3.09;78.74
54540;SHT30;40438;52.992;18.604;2024-01-30T08:27:56;3.18;78.25
54540;SHT30;40438;52.992;18.604;2024-01-30T08:30:22;3.23;78.45
54540;SHT30;40438;52.992;18.604;2024-01-30T08:32:48;3.31;78.19
54540;SHT30;40438;52.992;18.604;2024-01-30T08:35:14;3.36;77.70
54540;SHT30;40438;52.992;18.604;2024-01-30T08:37:41;3.43;77.31
54540;SHT30;40438;52.992;18.604;2024-01-30T08:40:07;3.54;77.12
54540;SHT30;40438;52.992;18.604;2024-01-30T08:42:33;3.64;77.06
54540;SHT30;40438;52.992;18.604;2024-01-30T08:44:59;3.79;76.99
54540;SHT30;40438;52.992;18.604;2024-01-30T08:47:25;3.88;76.66
54540;SHT30;40438;52.992;18.604;2024-01-30T08:49:51;3.94;76.21
54540;SHT30;40438;52.992;18.604;2024-01-30T08:52:17;4.01;75.79
54540;SHT30;40438;52.992;18.604;2024-01-30T08:54:44;4.08;75.51
54540;SHT30;40438;52.992;18.604;2024-01-30T08:57:10;4.09;75.15
54540;SHT30;40438;52.992;18.604;2024-01-30T08:59:35;4.18;75.12
54540;SHT30;40438;52.992;18.604;2024-01-30T09:02:01;4.20;75.15
54540;SHT30;40438;52.992;18.604;2024-01-30T09:04:27;4.30;74.59
54540;SHT30;40438;52.992;18.604;2024-01-30T09:06:53;4.37;74.81
54540;SHT30;40438;52.992;18.604;2024-01-30T09:09:18;4.37;74.33
54540;SHT30;40438;52.992;18.604;2024-01-30T09:11:46;4.47;74.27
54540;SHT30;40438;52.992;18.604;2024-01-30T09:14:11;4.57;73.97
54540;SHT30;40438;52.992;18.604;2024-01-30T09:16:37;4.66;73.46
54540;SHT30;40438;52.992;18.604;2024-01-30T09:19:03;4.76;72.99
54540;SHT30;40438;52.992;18.604;2024-01-30T09:21:29;4.77;72.97
54540;SHT30;40438;52.992;18.604;2024-01-30T09:24:01;4.83;72.35
54540;SHT30;40438;52.992;18.604;2024-01-30T09:26:28;4.87;72.65
54540;SHT30;40438;52.992;18.604;2024-01-30T09:28:55;4.92;72.55
54540;SHT30;40438;52.992;18.604;2024-01-30T09:31:21;4.94;72.51
54540;SHT30;40438;52.992;18.604;2024-01-30T09:33:46;5.02;71.81
54540;SHT30;40438;52.992;18.604;2024-01-30T09:36:12;5.11;71.37
54540;SHT30;40438;52.992;18.604;2024-01-30T09:38:38;5.23;71.51
54540;SHT30;40438;52.992;18.604;2024-01-30T09:41:05;5.33;71.29
54540;SHT30;40438;52.992;18.604;2024-01-30T09:43:34;5.57;71.11
54540;SHT30;40438;52.992;18.604;2024-01-30T09:46:02;5.63;70.16
54540;SHT30;40438;52.992;18.604;2024-01-30T09:48:29;5.91;70.34
54540;SHT30;40438;52.992;18.604;2024-01-30T09:50:56;6.14;69.65
54540;SHT30;40438;52.992;18.604;2024-01-30T09:53:23;6.33;69.11
54540;SHT30;40438;52.992;18.604;2024-01-30T09:55:49;6.63;67.66
54540;SHT30;40438;52.992;18.604;2024-01-30T09:58:15;6.63;66.54
54540;SHT30;40438;52.992;18.604;2024-01-30T10:00:41;6.75;66.71
54540;SHT30;40438;52.992;18.604;2024-01-30T10:03:08;6.86;66.05
54540;SHT30;40438;52.992;18.604;2024-01-30T10:05:35;6.87;65.51
54540;SHT30;40438;52.992;18.604;2024-01-30T10:08:06;6.93;65.06
54540;SHT30;40438;52.992;18.604;2024-01-30T10:10:32;6.91;65.83
54540;SHT30;40438;52.992;18.604;2024-01-30T10:12:57;6.97;66.26
54540;SHT30;40438;52.992;18.604;2024-01-30T10:15:24;7.04;66.26
54540;SHT30;40438;52.992;18.604;2024-01-30T10:17:51;6.94;65.11
54540;SHT30;40438;52.992;18.604;2024-01-30T10:20:18;7.05;65.55
54540;SHT30;40438;52.992;18.604;2024-01-30T10:22:44;7.12;65.34
54540;SHT30;40438;52.992;18.604;2024-01-30T10:25:10;7.31;64.68
54540;SHT30;40438;52.992;18.604;2024-01-30T10:27:36;7.43;64.52
54540;SHT30;40438;52.992;18.604;2024-01-30T10:30:02;7.57;63.54
54540;SHT30;40438;52.992;18.604;2024-01-30T10:32:27;7.75;63.34
54540;SHT30;40438;52.992;18.604;2024-01-30T10:34:53;7.82;62.37
54540;SHT30;40438;52.992;18.604;2024-01-30T10:37:21;8.04;62.89
54540;SHT30;40438;52.992;18.604;2024-01-30T10:39:53;8.24;62.22
54540;SHT30;40438;52.992;18.604;2024-01-30T10:42:19;8.28;60.58
54540;SHT30;40438;52.992;18.604;2024-01-30T10:44:56;8.35;61.02
54540;SHT30;40438;52.992;18.604;2024-01-30T10:47:26;8.46;61.38
54540;SHT30;40438;52.992;18.604;2024-01-30T10:49:52;8.41;58.99
54540;SHT30;40438;52.992;18.604;2024-01-30T10:52:23;8.34;59.56
54540;SHT30;40438;52.992;18.604;2024-01-30T10:54:50;8.18;59.84
54540;SHT30;40438;52.992;18.604;2024-01-30T10:57:17;8.27;60.23
54540;SHT30;40438;52.992;18.604;2024-01-30T10:59:44;8.63;60.75
54540;SHT30;40438;52.992;18.604;2024-01-30T11:02:11;8.83;58.30
54540;SHT30;40438;52.992;18.604;2024-01-30T11:04:37;8.86;58.39
54540;SHT30;40438;52.992;18.604;2024-01-30T11:07:03;8.97;57.94
54540;SHT30;40438;52.992;18.604;2024-01-30T11:09:40;8.80;58.04
54540;SHT30;40438;52.992;18.604;2024-01-30T11:12:12;9.14;58.11
54540;SHT30;40438;52.992;18.604;2024-01-30T11:14:38;9.38;57.67
54540;SHT30;40438;52.992;18.604;2024-01-30T11:17:04;9.58;56.64
54540;SHT30;40438;52.992;18.604;2024-01-30T11:19:31;9.56;55.95
54540;SHT30;40438;52.992;18.604;2024-01-30T11:21:57;9.55;56.34
54540;SHT30;40438;52.992;18.604;2024-01-30T11:24:23;9.59;54.69
54540;SHT30;40438;52.992;18.604;2024-01-30T11:26:55;9.58;55.65
54540;SHT30;40438;52.992;18.604;2024-01-30T11:29:24;9.61;55.58
54540;SHT30;40438;52.992;18.604;2024-01-30T11:31:53;9.55;55.23
54540;SHT30;40438;52.992;18.604;2024-01-30T11:34:20;9.48;55.58
54540;SHT30;40438;52.992;18.604;2024-01-30T11:36:51;9.46;55.19
54540;SHT30;40438;52.992;18.604;2024-01-30T11:39:17;9.30;55.49
54540;SHT30;40438;52.992;18.604;2024-01-30T11:41:45;9.35;56.09
54540;SHT30;40438;52.992;18.604;2024-01-30T11:44:13;9.41;56.07
54540;SHT30;40438;52.992;18.604;2024-01-30T11:46:39;9.34;55.56
54540;SHT30;40438;52.992;18.604;2024-01-30T11:49:05;9.38;56.42
54540;SHT30;40438;52.992;18.604;2024-01-30T11:51:31;9.41;56.39
54540;SHT30;40438;52.992;18.604;2024-01-30T11:53:57;9.35;55.76
54540;SHT30;40438;52.992;18.604;2024-01-30T11:56:24;9.34;56.63
54540;SHT30;40438;52.992;18.604;2024-01-30T11:58:49;9.30;56.46
54540;SHT30;40438;52.992;18.604;2024-01-30T12:01:18;8.81;56.85
54540;SHT30;40438;52.992;18.604;2024-01-30T12:03:49;8.63;58.32
54540;SHT30;40438;52.992;18.604;2024-01-30T12:06:15;8.46;59.13
54540;SHT30;40438;52.992;18.604;2024-01-30T12:08:41;8.65;58.84
54540;SHT30;40438;52.992;18.604;2024-01-30T12:11:07;8.48;58.36
54540;SHT30;40438;52.992;18.604;2024-01-30T12:13:33;8.60;57.91
54540;SHT30;40438;52.992;18.604;2024-01-30T12:15:59;8.45;58.66
54540;SHT30;40438;52.992;18.604;2024-01-30T12:18:26;8.62;59.11
54540;SHT30;40438;52.992;18.604;2024-01-30T12:20:58;8.75;59.13
54540;SHT30;40438;52.992;18.604;2024-01-30T12:23:24;8.89;59.50
54540;SHT30;40438;52.992;18.604;2024-01-30T12:25:50;8.89;58.99
54540;SHT30;40438;52.992;18.604;2024-01-30T12:28:16;9.03;58.38
54540;SHT30;40438;52.992;18.604;2024-01-30T12:30:42;9.01;58.77
54540;SHT30;40438;52.992;18.604;2024-01-30T12:33:08;8.81;58.51
54540;SHT30;40438;52.992;18.604;2024-01-30T12:35:35;8.97;58.57
54540;SHT30;40438;52.992;18.604;2024-01-30T12:38:01;8.93;58.45
54540;SHT30;40438;52.992;18.604;2024-01-30T12:40:27;8.83;58.46
54540;SHT30;40438;52.992;18.604;2024-01-30T12:42:53;8.60;59.50
54540;SHT30;40438;52.992;18.604;2024-01-30T12:45:19;8.55;59.50
54540;SHT30;40438;52.992;18.604;2024-01-30T12:47:45;8.52;60.01
54540;SHT30;40438;52.992;18.604;2024-01-30T12:50:10;8.62;60.09
54540;SHT30;40438;52.992;18.604;2024-01-30T12:52:38;8.66;59.50
54540;SHT30;40438;52.992;18.604;2024-01-30T12:55:04;8.69;59.24
54540;SHT30;40438;52.992;18.604;2024-01-30T12:57:30;8.81;59.41
54540;SHT30;40438;52.992;18.604;2024-01-30T12:59:57;8.90;59.41
54540;SHT30;40438;52.992;18.604;2024-01-30T13:02:23;9.04;58.30
54540;SHT30;40438;52.992;18.604;2024-01-30T13:04:49;8.99;58.56
54540;SHT30;40438;52.992;18.604;2024-01-30T13:07:15;9.08;58.62
54540;SHT30;40438;52.992;18.604;2024-01-30T13:09:42;9.30;58.44
54540;SHT30;40438;52.992;18.604;2024-01-30T13:12:08;9.16;58.47
54540;SHT30;40438;52.992;18.604;2024-01-30T13:14:36;9.23;58.09
54540;SHT30;40438;52.992;18.604;2024-01-30T13:17:02;9.34;58.07
54540;SHT30;40438;52.992;18.604;2024-01-30T13:19:27;9.41;57.78
54540;SHT30;40438;52.992;18.604;2024-01-30T13:21:53;9.35;57.61
54540;SHT30;40438;52.992;18.604;2024-01-30T13:24:19;9.18;57.99
54540;SHT30;40438;52.992;18.604;2024-01-30T13:26:46;9.37;58.45
54540;SHT30;40438;52.992;18.604;2024-01-30T13:29:12;9.45;58.18
54540;SHT30;40438;52.992;18.604;2024-01-30T13:31:38;9.54;58.08
54540;SHT30;40438;52.992;18.604;2024-01-30T13:34:04;9.49;57.97
54540;SHT30;40438;52.992;18.604;2024-01-30T13:36:29;9.49;58.14
54540;SHT30;40438;52.992;18.604;2024-01-30T13:38:55;9.61;57.73
54540;SHT30;40438;52.992;18.604;2024-01-30T13:41:21;9.63;57.66
54540;SHT30;40438;52.992;18.604;2024-01-30T13:43:48;9.56;57.71
54540;SHT30;40438;52.992;18.604;2024-01-30T13:46:14;9.49;57.70
54540;SHT30;40438;52.992;18.604;2024-01-30T13:48:40;9.42;58.13
54540;SHT30;40438;52.992;18.604;2024-01-30T13:51:05;9.44;58.09
54540;SHT30;40438;52.992;18.604;2024-01-30T13:53:31;9.30;58.65
54540;SHT30;40438;52.992;18.604;2024-01-30T13:55:57;9.23;58.91
54540;SHT30;40438;52.992;18.604;2024-01-30T13:58:23;9.08;59.12
54540;SHT30;40438;52.992;18.604;2024-01-30T14:00:50;9.00;59.53
54540;SHT30;40438;52.992;18.604;2024-01-30T14:03:16;8.72;60.31
54540;SHT30;40438;52.992;18.604;2024-01-30T14:05:42;8.69;60.68
54540;SHT30;40438;52.992;18.604;2024-01-30T14:08:07;8.65;60.83
54540;SHT30;40438;52.992;18.604;2024-01-30T14:10:33;8.59;61.01
54540;SHT30;40438;52.992;18.604;2024-01-30T14:12:59;8.53;61.35
54540;SHT30;40438;52.992;18.604;2024-01-30T14:15:25;8.46;61.76
54540;SHT30;40438;52.992;18.604;2024-01-30T14:17:52;8.44;61.85
54540;SHT30;40438;52.992;18.604;2024-01-30T14:20:18;8.39;62.01
54540;SHT30;40438;52.992;18.604;2024-01-30T14:22:44;8.28;62.47
54540;SHT30;40438;52.992;18.604;2024-01-30T14:25:10;8.27;62.62
54540;SHT30;40438;52.992;18.604;2024-01-30T14:27:36;8.20;63.25
54540;SHT30;40438;52.992;18.604;2024-01-30T14:30:02;8.11;63.50
54540;SHT30;40438;52.992;18.604;2024-01-30T14:32:28;8.07;63.81
54540;SHT30;40438;52.992;18.604;2024-01-30T14:34:56;8.00;64.19
54540;SHT30;40438;52.992;18.604;2024-01-30T14:37:21;7.91;64.53
54540;SHT30;40438;52.992;18.604;2024-01-30T14:39:47;7.85;64.93
54540;SHT30;40438;52.992;18.604;2024-01-30T14:42:13;7.77;65.20
54540;SHT30;40438;52.992;18.604;2024-01-30T14:44:39;7.70;65.67
54540;SHT30;40438;52.992;18.604;2024-01-30T14:47:05;7.59;65.97
54540;SHT30;40438;52.992;18.604;2024-01-30T14:49:31;7.55;66.15
54540;SHT30;40438;52.992;18.604;2024-01-30T14:51:58;7.49;66.36
54540;SHT30;40438;52.992;18.604;2024-01-30T14:54:24;7.40;66.67
54540;SHT30;40438;52.992;18.604;2024-01-30T14:56:50;7.38;66.84
54540;SHT30;40438;52.992;18.604;2024-01-30T14:59:16;7.32;67.00
54540;SHT30;40438;52.992;18.604;2024-01-30T15:01:42;7.24;67.40
54540;SHT30;40438;52.992;18.604;2024-01-30T15:04:07;7.14;67.81
54540;SHT30;40438;52.992;18.604;2024-01-30T15:06:33;7.07;67.94
54540;SHT30;40438;52.992;18.604;2024-01-30T15:09:01;7.04;68.17
54540;SHT30;40438;52.992;18.604;2024-01-30T15:11:26;6.96;68.54
54540;SHT30;40438;52.992;18.604;2024-01-30T15:13:52;6.91;68.83
54540;SHT30;40438;52.992;18.604;2024-01-30T15:16:18;6.84;69.16
54540;SHT30;40438;52.992;18.604;2024-01-30T15:18:44;6.76;69.45
54540;SHT30;40438;52.992;18.604;2024-01-30T15:21:09;6.67;69.89
54540;SHT30;40438;52.992;18.604;2024-01-30T15:23:35;6.59;70.06